MTPPMDPP

Guest
Details From MTPP - TOUSSAINT LOUVERTURE INTL
To MDPP - Puerto Plata Gregorio Luperon Intl
Flight Number -
Tags generated
Created
Modified
Stats Distance 121 nm / 224 km
Max Altitude 7,000 ft / 2,134 m
Waypoints 4
Social Downloads 0
Likes 0
Share VATSIM

Download

Looking for another format? Having issues loading an existing format? Contact us
Advertisement - Login to hide

Notes

Basic altitude profile: - Ascent Rate: 2500ft/min - Ascent Speed: 250kts - Cruise Altitude: 35000ft - Cruise Speed: 420kts - Descent Rate: 1500ft/min - Descent Speed: 250kts Options: - Use NATs: yes - Use PACOTS: yes - Use low airways: yes - Use high airways: yes

Route

MTPP RESOR B891 PTA MDPP

ID Type Via Altitude Latitude Longitude Leg Dist Tot Dist Heading (true) Name
O MTPP APT - 0 ft / 0 m 18.58005˚ -72.29254˚ - 0 nm - TOUSSAINT LOUVERTURE INTL
RESOR FIX - 3,800 ft / 1,158 m 19.54694˚ -70.79528˚ 102 nm 102 nm 55° / 56° -
PTA VOR B891 (AWY-LO) 7,000 ft / 2,134 m 19.75917˚ -70.57056˚ 17 nm 120 nm 45° / 45° PUERTO PLATA VOR-DME
O MDPP APT - 0 ft / 0 m 19.75790˚ -70.57003˚ 0 nm 121 nm 159° / 159° Puerto Plata Gregorio Luperon Intl

Altitude Profile

Advertisement - Login to hide

MTPP

Details ICAO MTPP (PAP)
Name TOUSSAINT LOUVERTURE INTL
Region Haiti
Timezone America/Port-au-Prince (UTC-4.0)
Stats Elevation 122 ft / 37 m (AMSL)
Location 18.580051° -72.292540°
Runways 1
Magnetic Variation 10.230° W

METAR

MTPP 231200Z 10009KT 9000 FEW022 27/22 Q1015 A2999

Decode

TAF

TAF MTPP 231100Z 2312/2412 11007KT 9000 FEW022 FM231400 09015KT 9999 FEW026 TEMPO 2318/2400 18008KT FEW024CB SCT050 BECMG 2404/2408 12010KT 7000 FEW020

Decode

Departure Runways

ID Width Length Bearing (true) Bearing (mag) Surface Threshold Offset Overrun Length
10 141 ft / 43 m 9,963 ft / 3,037 m 86.96° 97.19° Asphalt 0 ft / 0 m 0 ft / 0 m
28 141 ft / 43 m 9,963 ft / 3,037 m 266.97° 277.20° Asphalt 0 ft / 0 m 0 ft / 0 m

MDPP

Details ICAO MDPP (POP)
Name Puerto Plata Gregorio Luperon Intl
Region Dominican Republic
Timezone America/Santo_Domingo (UTC-4.0)
Stats Elevation 15 ft / 5 m (AMSL)
Location 19.757900° -70.570035°
Runways 1
Magnetic Variation 11.259° W

METAR

MDPP 231300Z 09010KT 9999 FEW020 BKN300 27/23 Q1018

Decode

TAF

Not found

Destination Runways

ID Width Length Bearing (true) Bearing (mag) Surface Threshold Offset Overrun Length
08 151 ft / 46 m 10,101 ft / 3,079 m 72.95° 84.21° Asphalt 0 ft / 0 m 0 ft / 0 m
26 151 ft / 46 m 10,101 ft / 3,079 m 252.95° 264.21° Asphalt 0 ft / 0 m 0 ft / 0 m

Popular Alternatives